createdAt,value
2018-09-27T00:01:04.501Z,89.56
2018-09-27T00:04:07.677Z,91.34
2018-09-27T00:07:10.844Z,92.55
2018-09-27T00:10:14.090Z,93.63
2018-09-27T00:13:17.402Z,93.49
2018-09-27T00:16:20.866Z,94.27
2018-09-27T00:19:24.133Z,97.93
2018-09-27T00:22:27.340Z,95.92
2018-09-27T00:25:30.644Z,94.34
2018-09-27T00:28:34.025Z,91.75
2018-09-27T00:31:37.405Z,92.62
2018-09-27T00:34:40.641Z,91.85
2018-09-27T00:37:43.870Z,94.82
2018-09-27T00:40:47.141Z,94.30
2018-09-27T00:43:50.332Z,95.01
2018-09-27T00:46:53.562Z,95.35
2018-09-27T00:49:56.806Z,95.17
2018-09-27T00:52:59.981Z,93.65
2018-09-27T00:56:03.251Z,95.69
2018-09-27T00:59:06.549Z,96.48
2018-09-27T01:02:09.759Z,95.83
2018-09-27T01:05:13.021Z,93.31
2018-09-27T01:08:16.265Z,95.60
2018-09-27T01:11:19.489Z,93.58
2018-09-27T01:14:22.657Z,95.32
2018-09-27T01:17:25.881Z,95.51
2018-09-27T01:20:29.129Z,94.75
2018-09-27T01:23:32.345Z,95.43
2018-09-27T01:26:35.573Z,96.42
2018-09-27T01:29:38.839Z,97.20
2018-09-27T01:32:42.016Z,96.24
2018-09-27T01:35:45.182Z,93.63
2018-09-27T01:38:48.353Z,92.75
2018-09-27T01:41:51.624Z,95.77
2018-09-27T01:44:55.151Z,93.58
2018-09-27T01:47:58.357Z,95.95
2018-09-27T01:51:01.607Z,96.49
2018-09-27T01:54:04.768Z,95.45
2018-09-27T01:57:07.959Z,96.73
2018-09-27T02:00:11.159Z,96.55
2018-09-27T02:03:14.360Z,99.01
2018-09-27T02:06:17.533Z,94.75
2018-09-27T02:09:20.709Z,92.98
2018-09-27T02:12:23.925Z,92.17
2018-09-27T02:15:27.114Z,92.34
2018-09-27T02:18:30.290Z,93.45
2018-09-27T02:21:33.532Z,95.69
2018-09-27T02:24:36.663Z,95.25
2018-09-27T02:27:39.885Z,94.78
2018-09-27T02:30:43.091Z,96.10
2018-09-27T02:33:46.237Z,100.00
2018-09-27T02:36:49.471Z,100.00
2018-09-27T02:39:52.646Z,99.23
2018-09-27T02:42:55.853Z,98.02
2018-09-27T02:45:59.052Z,98.14
2018-09-27T02:49:02.352Z,97.65
2018-09-27T02:52:05.582Z,95.64
2018-09-27T02:55:08.982Z,96.77
2018-09-27T02:58:12.155Z,95.62
2018-09-27T03:01:15.329Z,95.01
2018-09-27T03:04:18.490Z,95.35
2018-09-27T03:07:21.713Z,98.02
2018-09-27T03:10:24.913Z,96.93
2018-09-27T03:13:28.081Z,96.48
2018-09-27T03:16:31.282Z,98.64
2018-09-27T03:19:34.547Z,97.57
2018-09-27T03:22:37.689Z,97.73
2018-09-27T03:25:40.908Z,97.22
2018-09-27T03:28:44.106Z,93.83
2018-09-27T03:31:47.390Z,96.12
2018-09-27T03:34:50.586Z,96.60
2018-09-27T03:37:53.841Z,95.86
2018-09-27T03:40:57.177Z,97.47
2018-09-27T03:44:00.416Z,95.81
2018-09-27T03:47:03.669Z,96.70
2018-09-27T03:50:06.867Z,96.84
2018-09-27T03:53:10.052Z,96.28
2018-09-27T03:56:13.257Z,93.66
2018-09-27T03:59:16.535Z,97.43
2018-09-27T04:02:19.937Z,98.44
2018-09-27T04:05:23.134Z,99.34
2018-09-27T04:08:26.323Z,98.13
2018-09-27T04:11:29.550Z,95.93
2018-09-27T04:14:32.714Z,98.43
2018-09-27T04:17:35.919Z,98.51
2018-09-27T04:20:43.587Z,98.97
2018-09-27T04:23:46.793Z,99.46
2018-09-27T04:26:50.047Z,97.83
2018-09-27T04:29:53.301Z,98.60
2018-09-27T04:32:56.602Z,96.81
2018-09-27T04:35:59.767Z,97.61
2018-09-27T04:39:04.162Z,98.03
2018-09-27T04:42:07.386Z,94.55
2018-09-27T04:45:10.574Z,96.72
2018-09-27T04:48:13.739Z,96.20
2018-09-27T04:51:16.997Z,97.40
2018-09-27T04:54:20.143Z,96.96
2018-09-27T04:57:23.399Z,97.04
2018-09-27T05:00:26.520Z,97.31
2018-09-27T05:03:29.955Z,98.03
2018-09-27T05:06:33.148Z,97.59
2018-09-27T05:09:36.354Z,97.10
2018-09-27T05:12:39.527Z,98.05
2018-09-27T05:15:42.740Z,98.13
2018-09-27T05:18:45.997Z,96.19
2018-09-27T05:21:49.174Z,96.24
2018-09-27T05:24:52.378Z,96.97
2018-09-27T05:27:55.586Z,95.13
2018-09-27T05:30:58.936Z,94.65
2018-09-27T05:34:02.139Z,96.13
2018-09-27T05:37:05.358Z,94.48
2018-09-27T05:40:08.542Z,96.50
2018-09-27T05:43:11.746Z,100.00
2018-09-27T05:46:14.935Z,92.74
2018-09-27T05:49:18.139Z,96.66
2018-09-27T05:52:21.347Z,94.98
2018-09-27T05:55:24.495Z,94.17
2018-09-27T05:58:27.747Z,93.32
2018-09-27T06:01:30.926Z,87.68
2018-09-27T06:04:34.090Z,89.86
2018-09-27T06:07:37.302Z,86.70
2018-09-27T06:10:40.463Z,82.97
2018-09-27T06:13:43.584Z,78.59
2018-09-27T06:16:46.778Z,81.75
2018-09-27T06:19:49.969Z,79.47
2018-09-27T06:22:53.161Z,74.47
2018-09-27T06:25:56.341Z,77.68
2018-09-27T06:28:59.554Z,77.31
2018-09-27T06:32:02.729Z,72.98
2018-09-27T06:35:05.868Z,72.22
2018-09-27T06:38:09.018Z,72.53
2018-09-27T06:41:13.120Z,75.48
2018-09-27T06:44:16.323Z,77.71
2018-09-27T06:47:19.542Z,74.80
2018-09-27T06:50:23.052Z,76.86
2018-09-27T06:53:26.222Z,73.65
2018-09-27T06:56:29.448Z,71.95
2018-09-27T06:59:32.611Z,73.87
2018-09-27T07:02:35.840Z,76.47
2018-09-27T07:05:38.985Z,77.61
2018-09-27T07:08:42.228Z,78.25
2018-09-27T07:11:45.374Z,78.36
2018-09-27T07:14:48.623Z,83.46
2018-09-27T07:17:51.767Z,86.26
2018-09-27T07:20:54.941Z,84.69
2018-09-27T07:23:58.049Z,82.49
2018-09-27T07:27:01.285Z,80.51
2018-09-27T07:30:04.655Z,79.64
2018-09-27T07:33:07.961Z,79.04
2018-09-27T07:36:11.458Z,73.61
2018-09-27T07:39:14.811Z,75.94
2018-09-27T07:42:18.154Z,79.39
2018-09-27T07:45:21.561Z,80.60
2018-09-27T07:48:24.845Z,82.51
2018-09-27T07:51:28.168Z,83.74
2018-09-27T07:54:31.515Z,83.69
2018-09-27T07:57:34.773Z,80.85
2018-09-27T08:00:38.350Z,82.45
2018-09-27T08:03:41.689Z,84.88
2018-09-27T08:06:45.175Z,85.79
2018-09-27T08:09:48.528Z,84.96
2018-09-27T08:12:52.074Z,83.17
2018-09-27T08:15:55.509Z,84.30
2018-09-27T08:18:59.118Z,83.96
2018-09-27T08:22:02.531Z,81.99
2018-09-27T08:25:06.152Z,82.73
2018-09-27T08:28:09.548Z,85.22
2018-09-27T08:31:13.122Z,83.55
2018-09-27T08:34:16.675Z,84.30
2018-09-27T08:37:20.076Z,79.89
2018-09-27T08:40:23.553Z,79.11
2018-09-27T08:43:26.975Z,79.07
2018-09-27T08:46:30.572Z,79.66
2018-09-27T08:49:34.039Z,77.76
2018-09-27T08:52:37.447Z,78.27
2018-09-27T08:55:41.233Z,76.86
2018-09-27T08:58:44.522Z,78.92
2018-09-27T09:01:48.167Z,79.70
2018-09-27T09:04:52.585Z,79.80
2018-09-27T09:07:56.043Z,78.47
2018-09-27T09:11:00.085Z,77.77
2018-09-27T09:14:03.685Z,77.63
2018-09-27T09:17:07.234Z,77.26
2018-09-27T09:20:10.875Z,77.51
2018-09-27T09:23:14.093Z,76.83
2018-09-27T09:26:17.365Z,74.19
2018-09-27T09:29:20.888Z,71.91
2018-09-27T09:32:24.579Z,70.10
2018-09-27T09:35:27.966Z,71.53
2018-09-27T09:38:32.443Z,72.39
2018-09-27T09:41:36.302Z,72.33
2018-09-27T09:44:39.603Z,73.40
2018-09-27T09:47:42.873Z,72.14
2018-09-27T09:50:46.354Z,68.94
2018-09-27T09:53:49.766Z,69.35
2018-09-27T09:56:53.249Z,68.17
2018-09-27T09:59:56.854Z,64.66
2018-09-27T10:03:00.270Z,65.59
2018-09-27T10:06:03.718Z,68.34
2018-09-27T10:09:08.584Z,67.32
2018-09-27T10:12:12.083Z,68.71
2018-09-27T10:15:15.585Z,67.60
2018-09-27T10:18:19.182Z,65.24
2018-09-27T10:21:22.937Z,66.04
2018-09-27T10:24:26.259Z,67.17
2018-09-27T10:27:29.697Z,67.37
2018-09-27T10:30:33.723Z,67.48
2018-09-27T10:33:37.614Z,67.80
2018-09-27T10:36:41.076Z,67.52
2018-09-27T10:39:46.970Z,66.15
2018-09-27T10:42:50.466Z,66.13
2018-09-27T10:45:53.698Z,62.86
2018-09-27T10:48:56.879Z,63.29
2018-09-27T10:52:00.085Z,65.92
2018-09-27T10:55:03.389Z,64.05
2018-09-27T10:58:07.322Z,63.54
2018-09-27T11:01:11.057Z,63.03
2018-09-27T11:04:14.908Z,61.18
2018-09-27T11:07:18.114Z,60.51
2018-09-27T11:10:21.373Z,61.63
2018-09-27T11:13:24.574Z,60.11
2018-09-27T11:16:27.778Z,59.64
2018-09-27T11:19:31.079Z,60.80
2018-09-27T11:22:34.395Z,59.51
2018-09-27T11:25:37.756Z,59.12
2018-09-27T11:28:46.499Z,59.45
2018-09-27T11:31:55.419Z,58.87
2018-09-27T11:34:58.893Z,57.15
2018-09-27T11:38:02.054Z,56.64
2018-09-27T11:41:05.366Z,55.15
2018-09-27T11:44:08.589Z,55.18
2018-09-27T11:47:11.742Z,52.96
2018-09-27T11:50:14.970Z,51.69
2018-09-27T11:53:18.183Z,47.61
2018-09-27T11:56:21.334Z,48.37
2018-09-27T11:59:24.482Z,45.64
2018-09-27T12:02:27.634Z,45.60
2018-09-27T12:05:30.761Z,46.45
2018-09-27T12:08:34.028Z,42.72
2018-09-27T12:11:37.302Z,42.48
2018-09-27T12:14:40.476Z,42.38
2018-09-27T12:17:43.731Z,37.40
2018-09-27T12:20:46.775Z,37.89
2018-09-27T12:23:49.941Z,38.22
2018-09-27T12:26:54.107Z,38.38
2018-09-27T12:29:57.223Z,39.76
2018-09-27T12:33:00.475Z,38.41
2018-09-27T12:36:03.891Z,38.77
2018-09-27T12:39:09.085Z,38.43
2018-09-27T12:42:12.531Z,37.46
2018-09-27T12:45:16.364Z,36.96
2018-09-27T12:48:19.697Z,38.54
2018-09-27T12:51:23.038Z,38.46
2018-09-27T12:54:26.133Z,39.25
2018-09-27T12:57:30.159Z,38.53
2018-09-27T13:00:33.325Z,39.29
2018-09-27T13:03:36.533Z,37.21
2018-09-27T13:06:39.703Z,38.15
2018-09-27T13:09:43.029Z,39.42
2018-09-27T13:12:46.183Z,38.39
2018-09-27T13:15:49.393Z,41.20
2018-09-27T13:21:55.922Z,39.39
2018-09-27T13:24:59.281Z,38.02
2018-09-27T13:28:02.761Z,38.19
2018-09-27T13:31:06.365Z,39.66
2018-09-27T13:34:09.603Z,39.74
2018-09-27T13:37:12.930Z,39.77
2018-09-27T13:40:16.178Z,39.44
2018-09-27T13:43:19.452Z,39.38
2018-09-27T13:46:22.606Z,38.76
2018-09-27T13:49:25.833Z,39.06
2018-09-27T13:52:28.963Z,38.29
2018-09-27T13:55:32.222Z,38.81
2018-09-27T13:58:35.433Z,39.86
2018-09-27T14:01:38.587Z,37.96
2018-09-27T14:04:41.811Z,38.75
2018-09-27T14:07:45.010Z,37.91
2018-09-27T14:10:48.267Z,37.67
2018-09-27T14:13:51.599Z,39.23
2018-09-27T14:16:55.051Z,38.69
2018-09-27T14:19:58.273Z,38.64
2018-09-27T14:23:01.512Z,38.13
2018-09-27T14:26:04.792Z,37.91
2018-09-27T14:29:08.004Z,37.71
2018-09-27T14:32:11.260Z,39.70
2018-09-27T14:35:14.573Z,38.33
2018-09-27T14:38:17.746Z,38.74
2018-09-27T14:41:21.130Z,39.23
2018-09-27T14:44:24.462Z,39.45
2018-09-27T14:47:27.670Z,39.66
2018-09-27T14:50:30.870Z,40.08
2018-09-27T14:53:34.157Z,40.02
2018-09-27T14:56:37.357Z,41.60
2018-09-27T14:59:40.674Z,41.16
2018-09-27T15:02:43.767Z,42.00
2018-09-27T15:05:47.048Z,41.47
2018-09-27T15:08:50.184Z,42.11
2018-09-27T15:11:53.387Z,41.67
2018-09-27T15:14:56.561Z,42.99
2018-09-27T15:17:59.963Z,43.21
2018-09-27T15:21:03.178Z,42.44
2018-09-27T15:24:06.399Z,43.11
2018-09-27T15:27:10.301Z,43.12
2018-09-27T15:30:13.528Z,42.62
2018-09-27T15:33:16.749Z,43.62
2018-09-27T15:36:20.136Z,43.53
2018-09-27T15:39:23.379Z,43.52
2018-09-27T15:42:26.562Z,42.67
2018-09-27T15:45:29.789Z,43.56
2018-09-27T15:48:33.004Z,43.74
2018-09-27T15:51:36.315Z,43.59
2018-09-27T15:54:39.544Z,44.27
2018-09-27T15:57:42.687Z,43.96
2018-09-27T16:00:45.911Z,44.90
2018-09-27T16:03:49.396Z,46.16
2018-09-27T16:06:52.599Z,45.27
2018-09-27T16:09:55.831Z,46.85
2018-09-27T16:12:59.059Z,46.44
2018-09-27T16:16:02.332Z,45.39
2018-09-27T16:19:05.514Z,45.47
2018-09-27T16:22:08.780Z,45.53
2018-09-27T16:25:11.885Z,45.37
2018-09-27T16:28:15.098Z,46.00
2018-09-27T16:31:18.574Z,47.10
2018-09-27T16:34:22.030Z,46.36
2018-09-27T16:37:25.242Z,46.44
2018-09-27T16:40:28.732Z,46.49
2018-09-27T16:43:31.865Z,48.17
2018-09-27T16:46:35.312Z,48.26
2018-09-27T16:49:38.530Z,48.64
2018-09-27T16:52:41.702Z,49.54
2018-09-27T16:55:44.918Z,50.46
2018-09-27T16:58:48.109Z,51.26
2018-09-27T17:01:51.452Z,51.93
2018-09-27T17:04:54.653Z,52.58
2018-09-27T17:07:57.861Z,53.44
2018-09-27T17:11:01.122Z,53.49
2018-09-27T17:14:04.378Z,54.56
2018-09-27T17:17:07.590Z,55.73
2018-09-27T17:20:11.001Z,57.21
2018-09-27T17:23:14.164Z,57.91
2018-09-27T17:26:17.283Z,58.81
2018-09-27T17:29:20.595Z,58.72
2018-09-27T17:32:23.917Z,59.00
2018-09-27T17:35:27.260Z,58.56
2018-09-27T17:38:30.480Z,57.80
2018-09-27T17:41:33.702Z,58.08
2018-09-27T17:44:36.999Z,57.63
2018-09-27T17:47:40.258Z,58.43
2018-09-27T17:50:43.465Z,58.21
2018-09-27T17:53:46.590Z,58.21
2018-09-27T17:56:49.739Z,57.71
2018-09-27T17:59:53.865Z,57.54
2018-09-27T18:02:57.075Z,57.34
2018-09-27T18:06:00.261Z,57.34
2018-09-27T18:09:07.733Z,57.17
2018-09-27T18:12:11.056Z,58.02
2018-09-27T18:15:14.337Z,58.35
2018-09-27T18:18:17.539Z,58.24
2018-09-27T18:21:20.737Z,58.09
2018-09-27T18:24:24.959Z,56.99
2018-09-27T18:27:28.238Z,57.92
2018-09-27T18:30:31.617Z,58.34
2018-09-27T18:33:34.865Z,60.53
2018-09-27T18:36:38.188Z,61.81
2018-09-27T18:39:41.562Z,62.94
2018-09-27T18:42:44.793Z,64.28
2018-09-27T18:45:48.098Z,66.51
2018-09-27T18:48:51.293Z,66.67
2018-09-27T18:51:54.583Z,68.31
2018-09-27T18:54:57.885Z,68.30
2018-09-27T18:58:01.190Z,69.86
2018-09-27T19:01:04.477Z,69.70
2018-09-27T19:04:07.710Z,68.36
2018-09-27T19:07:11.051Z,66.71
2018-09-27T19:10:14.418Z,66.53
2018-09-27T19:13:17.731Z,66.25
2018-09-27T19:16:21.186Z,64.35
2018-09-27T19:19:24.546Z,63.98
2018-09-27T19:22:27.839Z,63.48
2018-09-27T19:25:31.142Z,62.38
2018-09-27T19:28:34.397Z,62.64
2018-09-27T19:31:37.717Z,62.22
2018-09-27T19:34:41.015Z,62.57
2018-09-27T19:37:44.282Z,62.47
2018-09-27T19:40:47.798Z,63.21
2018-09-27T19:43:51.037Z,62.90
2018-09-27T19:46:54.256Z,63.08
2018-09-27T19:49:57.537Z,64.17
2018-09-27T19:53:00.794Z,66.49
2018-09-27T19:56:04.086Z,66.35
2018-09-27T19:59:07.331Z,68.08
2018-09-27T20:02:10.523Z,66.70
2018-09-27T20:05:13.714Z,66.49
2018-09-27T20:08:16.950Z,67.77
2018-09-27T20:11:20.213Z,67.34
2018-09-27T20:14:23.390Z,67.63
2018-09-27T20:17:26.590Z,67.24
2018-09-27T20:20:29.801Z,67.96
2018-09-27T20:23:32.982Z,69.99
2018-09-27T20:26:36.258Z,70.43
2018-09-27T20:29:39.618Z,73.16
2018-09-27T20:32:42.884Z,71.50
2018-09-27T20:35:49.334Z,70.91
2018-09-27T20:39:40.044Z,70.84
2018-09-27T20:47:16.329Z,73.79
2018-09-27T20:50:24.449Z,73.98
2018-09-27T20:53:27.849Z,73.74
2018-09-27T20:56:30.947Z,74.79
2018-09-27T20:59:34.101Z,74.52
2018-09-27T21:02:37.300Z,73.70
2018-09-27T21:05:40.557Z,74.65
2018-09-27T21:08:43.630Z,74.36
2018-09-27T21:11:46.810Z,73.61
2018-09-27T21:14:49.979Z,73.42
2018-09-27T21:17:53.066Z,72.68
2018-09-27T21:20:56.175Z,75.50
2018-09-27T21:23:59.341Z,77.56
2018-09-27T21:27:02.617Z,75.58
2018-09-27T21:30:07.627Z,80.08
2018-09-27T21:33:11.173Z,80.58
2018-09-27T21:36:19.448Z,82.33
2018-09-27T21:39:23.167Z,82.56
2018-09-27T21:42:26.441Z,83.52
2018-09-27T21:45:32.274Z,83.55
2018-09-27T21:48:47.318Z,83.18
2018-09-27T21:51:53.581Z,83.36
2018-09-27T21:54:59.715Z,83.41
2018-09-27T21:58:07.311Z,85.92
2018-09-27T22:01:19.623Z,84.16
2018-09-27T22:04:25.203Z,85.50
2018-09-27T22:07:28.504Z,84.47
2018-09-27T22:10:31.864Z,81.89
2018-09-27T22:13:46.254Z,83.81
2018-09-27T22:16:57.551Z,84.41
2018-09-27T22:20:00.798Z,84.45
2018-09-27T22:23:05.056Z,87.21
2018-09-27T22:26:19.658Z,86.90
2018-09-27T22:29:31.210Z,86.62
2018-09-27T22:32:46.129Z,86.96
2018-09-27T22:36:03.393Z,88.37
2018-09-27T22:39:13.724Z,89.52
2018-09-27T22:42:20.374Z,89.40
2018-09-27T22:49:43.996Z,87.02
2018-09-27T22:52:47.277Z,90.72
2018-09-27T22:55:51.063Z,91.07
2018-09-27T22:59:01.022Z,89.93
2018-09-27T23:02:08.093Z,90.43
2018-09-27T23:05:11.475Z,90.63
2018-09-27T23:08:22.549Z,90.75
2018-09-27T23:11:30.540Z,91.83
2018-09-27T23:14:33.777Z,91.96
2018-09-27T23:17:37.070Z,91.46
2018-09-27T23:20:44.122Z,89.25
2018-09-27T23:23:52.112Z,89.98
2018-09-27T23:26:58.862Z,88.82
2018-09-27T23:30:10.059Z,89.12
2018-09-27T23:33:13.607Z,90.80
2018-09-27T23:36:16.866Z,91.69
2018-09-27T23:39:24.444Z,92.53
2018-09-27T23:42:35.213Z,94.78
2018-09-27T23:45:45.571Z,93.25
2018-09-27T23:48:53.210Z,94.10
2018-09-27T23:51:59.687Z,94.06
2018-09-27T23:55:08.947Z,94.39
